createdAt,value
2018-12-18T00:00:20.898Z,99850.58
2018-12-18T00:02:52.502Z,99852.62
2018-12-18T00:05:29.432Z,99848.53
2018-12-18T00:07:59.348Z,99844.00
2018-12-18T00:10:32.767Z,99848.76
2018-12-18T00:13:02.050Z,99844.74
2018-12-18T00:15:31.218Z,99846.63
2018-12-18T00:18:00.715Z,99845.67
2018-12-18T00:20:30.369Z,99843.28
2018-12-18T00:22:59.830Z,99841.03
2018-12-18T00:25:29.976Z,99838.33
2018-12-18T00:27:59.220Z,99838.76
2018-12-18T00:30:29.296Z,99838.91
2018-12-18T00:32:58.957Z,99839.92
2018-12-18T00:35:28.897Z,99835.63
2018-12-18T00:37:58.188Z,99839.56
2018-12-18T00:40:27.891Z,99833.86
2018-12-18T00:42:57.124Z,99831.19
2018-12-18T00:45:26.371Z,99828.33
2018-12-18T00:47:56.077Z,99840.07
2018-12-18T00:50:25.265Z,99841.30
2018-12-18T00:52:54.512Z,99842.55
2018-12-18T00:55:25.337Z,99847.06
2018-12-18T00:57:55.014Z,99849.77
2018-12-18T01:00:25.545Z,99851.23
2018-12-18T01:02:54.847Z,99853.35
2018-12-18T01:05:24.164Z,99855.67
2018-12-18T01:07:53.894Z,99854.09
2018-12-18T01:10:25.070Z,99858.88
2018-12-18T01:12:55.008Z,99856.25
2018-12-18T01:15:24.275Z,99858.95
2018-12-18T01:17:55.318Z,99865.17
2018-12-18T01:20:25.745Z,99861.38
2018-12-18T01:22:55.199Z,99863.48
2018-12-18T01:25:24.807Z,99858.88
2018-12-18T01:27:55.602Z,99863.36
2018-12-18T01:30:26.140Z,99864.59
2018-12-18T01:32:55.707Z,99858.88
2018-12-18T01:35:24.899Z,99861.08
2018-12-18T01:37:54.619Z,99862.74
2018-12-18T01:40:24.946Z,99867.56
2018-12-18T01:42:54.271Z,99875.83
2018-12-18T01:45:23.512Z,99864.86
2018-12-18T01:47:53.250Z,99869.77
2018-12-18T01:50:23.088Z,99866.67
2018-12-18T01:52:52.626Z,99866.33
2018-12-18T01:55:22.930Z,99864.78
2018-12-18T01:57:52.534Z,99860.19
2018-12-18T02:00:21.844Z,99855.08
2018-12-18T02:02:51.501Z,99859.50
2018-12-18T02:05:20.819Z,99851.18
2018-12-18T02:07:52.769Z,99860.44
2018-12-18T02:10:22.537Z,99861.28
2018-12-18T02:12:51.746Z,99859.26
2018-12-18T02:15:21.828Z,99860.90
2018-12-18T02:17:51.715Z,99862.95
2018-12-18T02:20:21.231Z,99861.98
2018-12-18T02:22:51.949Z,99862.72
2018-12-18T02:25:22.745Z,99861.44
2018-12-18T02:27:52.449Z,99863.45
2018-12-18T02:30:22.431Z,99860.08
2018-12-18T02:32:52.305Z,99866.70
2018-12-18T02:35:22.666Z,99868.11
2018-12-18T02:37:52.480Z,99865.38
2018-12-18T02:40:23.567Z,99872.19
2018-12-18T02:42:53.223Z,99861.09
2018-12-18T02:45:22.442Z,99866.27
2018-12-18T02:47:51.781Z,99874.81
2018-12-18T02:50:21.312Z,99871.52
2018-12-18T02:52:50.721Z,99873.06
2018-12-18T02:55:20.577Z,99873.54
2018-12-18T02:57:49.838Z,99872.56
2018-12-18T03:00:20.480Z,99876.23
2018-12-18T03:02:49.729Z,99876.47
2018-12-18T03:05:19.364Z,99874.20
2018-12-18T03:07:50.391Z,99877.92
2018-12-18T03:10:24.923Z,99884.09
2018-12-18T03:12:54.196Z,99884.16
2018-12-18T03:15:24.185Z,99881.83
2018-12-18T03:17:53.499Z,99879.06
2018-12-18T03:20:23.256Z,99880.82
2018-12-18T03:22:52.496Z,99874.04
2018-12-18T03:25:21.753Z,99874.31
2018-12-18T03:27:51.152Z,99872.66
2018-12-18T03:30:20.445Z,99867.09
2018-12-18T03:32:52.869Z,99859.06
2018-12-18T03:35:22.333Z,99856.87
2018-12-18T03:37:52.141Z,99850.63
2018-12-18T03:40:21.431Z,99857.44
2018-12-18T03:42:50.687Z,99852.52
2018-12-18T03:45:21.996Z,99852.70
2018-12-18T03:47:51.296Z,99848.02
2018-12-18T03:50:21.033Z,99855.16
2018-12-18T03:52:51.536Z,99861.00
2018-12-18T03:55:21.249Z,99857.17
2018-12-18T03:57:52.711Z,99855.47
2018-12-18T04:00:23.746Z,99858.03
2018-12-18T04:02:53.333Z,99857.59
2018-12-18T04:05:23.616Z,99861.94
2018-12-18T04:07:52.861Z,99869.59
2018-12-18T04:10:22.205Z,99864.39
2018-12-18T04:12:51.572Z,99865.36
2018-12-18T04:15:20.847Z,99855.63
2018-12-18T04:17:51.160Z,99856.56
2018-12-18T04:20:20.405Z,99859.13
2018-12-18T04:22:49.854Z,99862.39
2018-12-18T04:25:19.105Z,99864.39
2018-12-18T04:27:48.307Z,99864.46
2018-12-18T04:30:17.965Z,99870.30
2018-12-18T04:32:47.284Z,99869.16
2018-12-18T04:35:18.538Z,99873.38
2018-12-18T04:37:48.341Z,99873.73
2018-12-18T04:40:19.629Z,99871.10
2018-12-18T04:42:48.877Z,99869.16
2018-12-18T04:45:18.105Z,99873.80
2018-12-18T04:47:47.418Z,99866.47
2018-12-18T04:50:18.582Z,99869.36
2018-12-18T04:52:48.156Z,99874.57
2018-12-18T04:55:18.332Z,99880.47
2018-12-18T04:57:47.536Z,99877.56
2018-12-18T05:00:16.790Z,99877.83
2018-12-18T05:02:46.170Z,99879.95
2018-12-18T05:05:16.450Z,99882.89
2018-12-18T05:07:45.999Z,99884.72
2018-12-18T05:10:16.814Z,99884.53
2018-12-18T05:12:46.291Z,99891.88
2018-12-18T05:15:15.599Z,99891.18
2018-12-18T05:17:44.983Z,99895.19
2018-12-18T05:20:14.290Z,99902.05
2018-12-18T05:22:44.095Z,99902.97
2018-12-18T05:25:14.054Z,99897.70
2018-12-18T05:27:43.929Z,99904.05
2018-12-18T05:30:13.186Z,99903.21
2018-12-18T05:32:42.955Z,99908.03
2018-12-18T05:35:13.127Z,99910.55
2018-12-18T05:37:42.412Z,99909.17
2018-12-18T05:40:12.402Z,99906.41
2018-12-18T05:42:44.601Z,99910.42
2018-12-18T05:45:13.801Z,99912.03
2018-12-18T05:47:43.489Z,99912.70
2018-12-18T05:50:13.324Z,99910.30
2018-12-18T05:52:42.544Z,99912.64
2018-12-18T05:55:11.780Z,99912.49
2018-12-18T05:57:40.988Z,99903.27
2018-12-18T06:00:10.808Z,99904.52
2018-12-18T06:02:40.621Z,99900.84
2018-12-18T06:05:10.848Z,99910.86
2018-12-18T06:07:40.482Z,99916.14
2018-12-18T06:10:11.948Z,99912.38
2018-12-18T06:12:42.253Z,99917.75
2018-12-18T06:15:12.703Z,99920.97
2018-12-18T06:17:44.940Z,99920.78
2018-12-18T06:20:14.794Z,99925.66
2018-12-18T06:22:44.332Z,99926.17
2018-12-18T06:25:14.007Z,99928.17
2018-12-18T06:27:43.293Z,99926.73
2018-12-18T06:30:13.007Z,99925.93
2018-12-18T06:32:42.550Z,99938.35
2018-12-18T06:35:11.946Z,99936.02
2018-12-18T06:37:41.169Z,99941.05
2018-12-18T06:40:10.733Z,99940.48
2018-12-18T06:42:40.187Z,99944.38
2018-12-18T06:45:09.950Z,99943.35
2018-12-18T06:47:40.384Z,99943.69
2018-12-18T06:50:10.333Z,99947.45
2018-12-18T06:52:40.038Z,99947.01
2018-12-18T06:55:13.066Z,99950.63
2018-12-18T06:57:50.358Z,99956.53
2018-12-18T07:00:27.969Z,99957.91
2018-12-18T07:03:31.484Z,99958.74
2018-12-18T07:06:17.915Z,99961.11
2018-12-18T07:08:58.097Z,99971.35
2018-12-18T07:11:36.627Z,99969.84
2018-12-18T07:14:10.749Z,99966.65
2018-12-18T07:16:43.926Z,99963.27
2018-12-18T07:19:14.266Z,99965.09
2018-12-18T07:21:44.157Z,99959.49
2018-12-18T07:24:14.259Z,99963.14
2018-12-18T07:26:44.278Z,99967.64
2018-12-18T07:29:19.580Z,99967.78
2018-12-18T07:31:54.543Z,99968.48
2018-12-18T07:34:33.326Z,99974.28
2018-12-18T07:37:04.411Z,99967.34
2018-12-18T07:39:38.763Z,99963.11
2018-12-18T07:42:12.362Z,99975.60
2018-12-18T07:44:48.833Z,99965.45
2018-12-18T07:47:23.640Z,99961.62
2018-12-18T07:50:02.174Z,99971.29
2018-12-18T07:52:36.238Z,99961.86
2018-12-18T07:55:11.148Z,99960.93
2018-12-18T07:57:46.307Z,99965.75
2018-12-18T08:00:21.309Z,99969.34
2018-12-18T08:03:06.707Z,99966.50
2018-12-18T08:05:39.523Z,99967.06
2018-12-18T08:08:20.493Z,99964.49
2018-12-18T08:10:54.308Z,99977.13
2018-12-18T08:13:27.980Z,99977.61
2018-12-18T08:16:00.148Z,99977.70
2018-12-18T08:21:30.487Z,99985.02
2018-12-18T08:24:04.829Z,99986.92
2018-12-18T08:26:37.255Z,99992.55
2018-12-18T08:29:09.449Z,99997.31
2018-12-18T08:31:48.238Z,99992.70
2018-12-18T08:34:23.363Z,99993.00
2018-12-18T08:36:53.181Z,99992.54
2018-12-18T08:39:22.717Z,99997.13
2018-12-18T08:41:53.468Z,99998.09
2018-12-18T08:44:25.142Z,100007.25
2018-12-18T08:46:56.709Z,100006.23
2018-12-18T08:49:26.926Z,100013.51
2018-12-18T08:51:56.190Z,100003.11
2018-12-18T08:54:25.461Z,100012.41
2018-12-18T08:56:55.159Z,100017.28
2018-12-18T08:59:25.220Z,100023.13
2018-12-18T09:01:54.932Z,100019.36
2018-12-18T09:04:25.925Z,100025.31
2018-12-18T09:06:56.474Z,100033.37
2018-12-18T09:09:25.719Z,100027.53
2018-12-18T09:11:56.921Z,100029.72
2018-12-18T09:14:57.496Z,100023.03
2018-12-18T09:17:32.800Z,100017.34
2018-12-18T09:20:02.175Z,100019.59
2018-12-18T09:22:32.461Z,100021.98
2018-12-18T09:25:02.617Z,100024.56
2018-12-18T09:27:36.569Z,100016.91
2018-12-18T09:30:09.365Z,100014.70
2018-12-18T09:32:38.642Z,100005.98
2018-12-18T09:35:09.991Z,100010.11
2018-12-18T09:37:39.659Z,100004.70
2018-12-18T09:40:10.191Z,100005.70
2018-12-18T09:42:45.129Z,100001.90
2018-12-18T09:45:17.559Z,99992.72
2018-12-18T09:47:47.579Z,99989.17
2018-12-18T09:50:16.947Z,99987.77
2018-12-18T09:52:46.244Z,99980.36
2018-12-18T09:55:15.523Z,99983.39
2018-12-18T09:58:03.244Z,99982.15
2018-12-18T10:00:32.541Z,99974.89
2018-12-18T10:03:01.694Z,99983.15
2018-12-18T10:05:31.265Z,99979.09
2018-12-18T10:08:00.897Z,99975.23
2018-12-18T10:10:30.156Z,99979.45
2018-12-18T10:12:59.350Z,99974.14
2018-12-18T10:15:29.283Z,99974.42
2018-12-18T10:17:58.572Z,99975.90
2018-12-18T10:20:27.930Z,99976.55
2018-12-18T10:22:57.140Z,99979.16
2018-12-18T10:25:26.685Z,99981.69
2018-12-18T10:27:56.349Z,99981.39
2018-12-18T10:30:25.807Z,99982.39
2018-12-18T10:32:55.120Z,99984.33
2018-12-18T10:35:24.789Z,99978.06
2018-12-18T10:37:54.038Z,99980.52
2018-12-18T10:40:23.468Z,99977.27
2018-12-18T10:42:52.642Z,99981.69
2018-12-18T10:45:22.542Z,99978.14
2018-12-18T10:47:51.760Z,99977.53
2018-12-18T10:50:21.085Z,99970.27
2018-12-18T10:53:02.841Z,99973.38
2018-12-18T11:05:19.089Z,99958.36
2018-12-18T11:08:01.280Z,99964.03
2018-12-18T11:10:36.161Z,99959.26
2018-12-18T11:13:17.555Z,99960.41
2018-12-18T11:15:47.949Z,99957.98
2018-12-18T11:18:17.280Z,99961.75
2018-12-18T11:20:46.539Z,99959.05
2018-12-18T11:23:15.845Z,99955.59
2018-12-18T11:26:07.357Z,99951.93
2018-12-18T11:29:00.303Z,99946.56
2018-12-18T11:31:57.507Z,99947.68
2018-12-18T11:34:41.094Z,99944.66
2018-12-18T11:37:28.163Z,99941.54
2018-12-18T11:40:15.025Z,99938.70
2018-12-18T11:43:00.465Z,99933.06
2018-12-18T11:45:30.885Z,99928.16
2018-12-18T11:48:02.947Z,99927.27
2018-12-18T11:50:32.346Z,99919.14
2018-12-18T11:53:01.606Z,99923.88
2018-12-18T11:55:31.046Z,99917.86
2018-12-18T11:58:09.377Z,99912.97
2018-12-18T12:00:42.655Z,99904.88
2018-12-18T12:03:16.377Z,99904.53
2018-12-18T12:05:47.602Z,99906.24
2018-12-18T12:08:16.839Z,99902.70
2018-12-18T12:10:46.067Z,99901.89
2018-12-18T12:13:16.378Z,99901.92
2018-12-18T12:15:45.595Z,99895.75
2018-12-18T12:18:15.036Z,99890.72
2018-12-18T12:20:44.258Z,99884.12
2018-12-18T12:23:16.136Z,99891.70
2018-12-18T12:25:46.489Z,99878.23
2018-12-18T12:28:16.411Z,99881.49
2018-12-18T12:30:45.645Z,99880.56
2018-12-18T12:33:14.874Z,99879.59
2018-12-18T12:35:44.262Z,99877.69
2018-12-18T12:38:13.844Z,99871.13
2018-12-18T12:40:43.095Z,99876.95
2018-12-18T12:43:13.747Z,99871.30
2018-12-18T12:45:43.402Z,99861.71
2018-12-18T12:48:13.175Z,99862.87
2018-12-18T12:50:42.710Z,99856.98
2018-12-18T12:53:12.038Z,99855.80
2018-12-18T12:55:41.755Z,99847.41
2018-12-18T12:58:11.949Z,99843.72
2018-12-18T13:00:41.210Z,99847.29
2018-12-18T13:03:10.487Z,99844.53
2018-12-18T13:05:39.703Z,99844.20
2018-12-18T13:08:09.012Z,99842.30
2018-12-18T13:10:38.346Z,99846.99
2018-12-18T13:13:08.575Z,99841.05
2018-12-18T13:15:39.126Z,99837.71
2018-12-18T13:18:08.423Z,99839.58
2018-12-18T13:20:38.577Z,99835.20
2018-12-18T13:23:07.941Z,99832.57
2018-12-18T13:25:38.764Z,99827.88
2018-12-18T13:28:08.894Z,99835.84
2018-12-18T13:30:38.793Z,99825.52
2018-12-18T13:33:09.218Z,99828.17
2018-12-18T13:35:39.004Z,99823.20
2018-12-18T13:38:10.051Z,99831.02
2018-12-18T13:40:41.356Z,99829.52
2018-12-18T13:43:11.412Z,99820.05
2018-12-18T13:45:41.781Z,99832.92
2018-12-18T13:48:12.428Z,99825.50
2018-12-18T13:50:42.435Z,99831.83
2018-12-18T13:53:11.711Z,99831.33
2018-12-18T13:55:42.672Z,99829.39
2018-12-18T13:58:13.981Z,99827.72
2018-12-18T14:00:43.599Z,99822.55
2018-12-18T14:03:14.315Z,99821.17
2018-12-18T14:05:43.776Z,99825.67
2018-12-18T14:08:13.379Z,99826.23
2018-12-18T14:10:43.105Z,99820.73
2018-12-18T14:13:12.608Z,99822.25
2018-12-18T14:15:41.913Z,99823.36
2018-12-18T14:18:11.642Z,99824.85
2018-12-18T14:20:41.490Z,99819.36
2018-12-18T14:23:11.733Z,99821.09
2018-12-18T14:25:41.375Z,99819.12
2018-12-18T14:28:10.778Z,99818.95
2018-12-18T14:30:41.109Z,99817.23
2018-12-18T14:33:10.400Z,99813.87
2018-12-18T14:35:39.598Z,99814.66
2018-12-18T14:38:09.091Z,99818.00
2018-12-18T14:40:39.229Z,99811.46
2018-12-18T14:43:10.861Z,99820.75
2018-12-18T14:45:41.294Z,99811.84
2018-12-18T14:48:10.722Z,99814.36
2018-12-18T14:50:40.589Z,99821.13
2018-12-18T14:53:09.775Z,99818.95
2018-12-18T14:55:39.057Z,99812.41
2018-12-18T14:58:08.223Z,99810.83
2018-12-18T15:00:38.652Z,99820.06
2018-12-18T15:03:08.331Z,99819.76
2018-12-18T15:05:37.555Z,99827.25
2018-12-18T15:08:06.834Z,99836.27
2018-12-18T15:10:36.039Z,99833.28
2018-12-18T15:13:05.426Z,99835.56
2018-12-18T15:15:35.534Z,99833.23
2018-12-18T15:18:49.911Z,99830.58
2018-12-18T15:21:21.550Z,99828.23
2018-12-18T15:23:50.874Z,99824.66
2018-12-18T15:26:20.299Z,99824.34
2018-12-18T15:28:49.514Z,99838.03
2018-12-18T15:31:19.649Z,99838.92
2018-12-18T15:33:49.527Z,99835.83
2018-12-18T15:36:18.823Z,99838.92
2018-12-18T15:38:51.447Z,99831.84
2018-12-18T15:41:29.298Z,99836.94
2018-12-18T15:44:02.614Z,99834.37
2018-12-18T15:46:41.589Z,99838.98
2018-12-18T15:49:21.293Z,99842.02
2018-12-18T15:51:54.917Z,99826.42
2018-12-18T15:54:24.823Z,99825.53
2018-12-18T15:56:54.441Z,99823.94
2018-12-18T15:59:23.916Z,99831.22
2018-12-18T16:01:53.229Z,99825.23
2018-12-18T16:04:23.114Z,99827.38
2018-12-18T16:06:53.515Z,99834.13
2018-12-18T16:09:23.352Z,99830.02
2018-12-18T16:11:52.872Z,99833.04
2018-12-18T16:14:24.301Z,99830.89
2018-12-18T16:16:54.043Z,99837.22
2018-12-18T16:19:23.891Z,99838.08
2018-12-18T16:21:54.238Z,99830.02
2018-12-18T16:24:23.933Z,99827.04
2018-12-18T16:26:53.289Z,99828.82
2018-12-18T16:29:22.843Z,99824.05
2018-12-18T16:31:52.055Z,99825.33
2018-12-18T16:34:21.732Z,99830.66
2018-12-18T16:36:51.660Z,99824.22
2018-12-18T16:39:20.877Z,99827.62
2018-12-18T16:41:50.910Z,99828.84
2018-12-18T16:44:20.182Z,99834.57
2018-12-18T16:46:50.730Z,99833.41
2018-12-18T16:49:19.971Z,99835.85
2018-12-18T16:51:49.669Z,99842.44
2018-12-18T16:54:19.764Z,99833.54
2018-12-18T16:56:50.971Z,99840.63
2018-12-18T16:59:22.018Z,99848.41
2018-12-18T17:01:51.781Z,99842.80
2018-12-18T17:04:22.314Z,99839.88
2018-12-18T17:06:52.682Z,99846.56
2018-12-18T17:09:21.944Z,99847.99
2018-12-18T17:11:51.408Z,99844.20
2018-12-18T17:14:20.965Z,99849.41
2018-12-18T17:16:50.241Z,99845.41
2018-12-18T17:19:19.540Z,99846.20
2018-12-18T17:21:49.058Z,99854.11
2018-12-18T17:24:18.891Z,99851.42
2018-12-18T17:26:48.299Z,99853.17
2018-12-18T17:29:18.086Z,99851.72
2018-12-18T17:31:47.385Z,99846.69
2018-12-18T17:34:17.127Z,99848.25
2018-12-18T17:36:46.290Z,99850.23
2018-12-18T17:39:15.750Z,99846.16
2018-12-18T17:41:45.635Z,99844.69
2018-12-18T17:44:16.541Z,99864.72
2018-12-18T17:46:46.538Z,99858.25
2018-12-18T17:49:16.334Z,99861.91
2018-12-18T17:51:46.156Z,99861.38
2018-12-18T17:54:16.157Z,99858.73
2018-12-18T17:56:45.614Z,99857.22
2018-12-18T17:59:24.105Z,99862.47
2018-12-18T18:01:54.430Z,99850.41
2018-12-18T18:04:23.772Z,99849.66
2018-12-18T18:06:57.978Z,99850.03
2018-12-18T18:09:27.393Z,99843.00
2018-12-18T18:11:57.278Z,99840.34
2018-12-18T18:14:26.657Z,99832.34
2018-12-18T18:16:56.035Z,99834.34
2018-12-18T18:19:26.475Z,99826.34
2018-12-18T18:21:56.634Z,99823.16
2018-12-18T18:31:23.343Z,99817.92
2018-12-18T18:33:53.067Z,99825.92
2018-12-18T18:36:23.667Z,99827.71
2018-12-18T18:38:53.235Z,99823.78
2018-12-18T18:41:22.512Z,99823.47
2018-12-18T18:43:54.360Z,99819.93
2018-12-18T18:46:23.589Z,99817.02
2018-12-18T18:48:54.843Z,99811.27
2018-12-18T18:51:24.939Z,99803.66
2018-12-18T18:53:54.925Z,99810.11
2018-12-18T18:56:27.021Z,99807.17
2018-12-18T18:58:58.278Z,99802.44
2018-12-18T19:01:29.193Z,99801.84
2018-12-18T19:03:59.357Z,99801.43
2018-12-18T19:06:29.474Z,99803.91
2018-12-18T19:08:58.811Z,99805.30
2018-12-18T19:11:28.046Z,99795.89
2018-12-18T19:13:58.475Z,99796.27
2018-12-18T19:16:29.000Z,99795.09
2018-12-18T19:18:58.670Z,99796.70
2018-12-18T19:21:32.499Z,99797.13
2018-12-18T19:24:01.919Z,99799.91
2018-12-18T19:26:31.410Z,99793.77
2018-12-18T19:29:00.884Z,99795.83
2018-12-18T19:31:30.302Z,99789.80
2018-12-18T19:33:59.927Z,99781.71
2018-12-18T19:36:29.283Z,99794.26
2018-12-18T19:38:58.471Z,99788.86
2018-12-18T19:41:27.729Z,99787.98
2018-12-18T19:43:57.274Z,99780.41
2018-12-18T19:46:27.127Z,99778.37
2018-12-18T19:48:57.274Z,99775.59
2018-12-18T19:51:26.840Z,99777.41
2018-12-18T19:53:56.386Z,99776.06
2018-12-18T19:56:26.629Z,99768.38
2018-12-18T19:58:56.236Z,99760.89
2018-12-18T20:01:27.600Z,99762.20
2018-12-18T20:03:58.850Z,99752.36
2018-12-18T20:06:28.671Z,99751.83
2018-12-18T20:08:59.800Z,99742.52
2018-12-18T20:11:30.477Z,99739.82
2018-12-18T20:14:00.176Z,99733.19
2018-12-18T20:16:29.921Z,99728.94
2018-12-18T20:19:00.096Z,99722.53
2018-12-18T20:21:31.929Z,99709.42
2018-12-18T20:24:01.402Z,99711.81
2018-12-18T20:26:31.633Z,99716.86
2018-12-18T20:29:16.155Z,99709.27
2018-12-18T20:31:45.523Z,99702.71
2018-12-18T20:34:15.324Z,99703.83
2018-12-18T20:36:45.360Z,99706.38
2018-12-18T20:39:14.768Z,99698.93
2018-12-18T20:41:44.239Z,99695.15
2018-12-18T20:44:13.674Z,99689.83
2018-12-18T20:46:43.828Z,99691.64
2018-12-18T20:49:14.925Z,99689.75
2018-12-18T20:51:44.190Z,99689.83
2018-12-18T20:54:13.737Z,99682.11
2018-12-18T20:56:44.782Z,99682.38
2018-12-18T20:59:15.525Z,99679.48
2018-12-18T21:01:44.891Z,99673.73
2018-12-18T21:04:14.600Z,99674.31
2018-12-18T21:06:45.143Z,99666.14
2018-12-18T21:09:17.841Z,99662.63
2018-12-18T21:11:48.276Z,99654.06
2018-12-18T21:14:22.036Z,99644.58
2018-12-18T21:16:51.695Z,99639.76
2018-12-18T21:19:21.409Z,99631.23
2018-12-18T21:21:51.121Z,99625.91
2018-12-18T21:24:22.138Z,99617.91
2018-12-18T21:26:51.627Z,99614.48
2018-12-18T21:29:39.210Z,99610.17
2018-12-18T21:32:10.817Z,99607.63
2018-12-18T21:34:40.421Z,99599.83
2018-12-18T21:37:11.682Z,99591.68
2018-12-18T21:39:42.792Z,99586.84
2018-12-18T21:42:12.156Z,99592.09
2018-12-18T21:44:44.647Z,99579.64
2018-12-18T21:47:13.915Z,99572.72
2018-12-18T21:49:45.098Z,99579.12
2018-12-18T21:52:14.401Z,99575.05
2018-12-18T21:54:43.647Z,99578.81
2018-12-18T21:57:12.917Z,99584.53
2018-12-18T21:59:42.210Z,99580.27
2018-12-18T22:02:11.543Z,99584.44
2018-12-18T22:04:40.852Z,99574.95
2018-12-18T22:07:10.125Z,99584.84
2018-12-18T22:09:39.440Z,99583.86
2018-12-18T22:12:08.706Z,99573.64
2018-12-18T22:14:38.089Z,99571.92
2018-12-18T22:17:09.231Z,99570.09
2018-12-18T22:19:38.737Z,99569.16
2018-12-18T22:22:09.114Z,99563.67
2018-12-18T22:24:38.415Z,99568.16
2018-12-18T22:27:07.782Z,99565.77
2018-12-18T22:29:38.807Z,99558.94
2018-12-18T22:32:10.691Z,99545.15
2018-12-18T22:34:41.034Z,99535.97
2018-12-18T22:37:11.570Z,99532.30
2018-12-18T22:39:40.946Z,99537.23
2018-12-18T22:42:10.222Z,99528.05
2018-12-18T22:44:39.442Z,99527.18
2018-12-18T22:47:09.936Z,99527.02
2018-12-18T22:49:40.030Z,99530.77
2018-12-18T22:52:09.343Z,99523.34
2018-12-18T22:54:38.629Z,99520.41
2018-12-18T22:57:07.944Z,99514.39
2018-12-18T22:59:37.444Z,99517.05
2018-12-18T23:02:13.089Z,99512.61
2018-12-18T23:04:42.651Z,99511.34
2018-12-18T23:07:13.967Z,99508.72
2018-12-18T23:09:43.189Z,99508.28
2018-12-18T23:12:12.617Z,99507.17
2018-12-18T23:14:41.867Z,99497.78
2018-12-18T23:17:11.378Z,99495.23
2018-12-18T23:19:41.097Z,99490.72
2018-12-18T23:22:11.593Z,99494.32
2018-12-18T23:24:41.415Z,99487.19
2018-12-18T23:27:12.858Z,99494.55
2018-12-18T23:29:42.407Z,99487.02
2018-12-18T23:32:12.164Z,99483.08
2018-12-18T23:34:42.476Z,99490.45
2018-12-18T23:37:15.499Z,99483.89
2018-12-18T23:39:45.551Z,99478.20
2018-12-18T23:42:15.346Z,99464.34
2018-12-18T23:44:45.546Z,99447.38
2018-12-18T23:47:15.442Z,99453.27
2018-12-18T23:49:44.838Z,99443.22
2018-12-18T23:52:14.962Z,99448.98
2018-12-18T23:54:45.147Z,99438.42
2018-12-18T23:57:14.811Z,99431.93
2018-12-18T23:59:44.197Z,99429.30
